createdAt,value
2019-01-18T00:00:35.719Z,990.91
2019-01-18T00:01:35.708Z,991.00
2019-01-18T00:02:35.732Z,990.95
2019-01-18T00:03:35.690Z,991.00
2019-01-18T00:04:35.675Z,990.99
2019-01-18T00:05:35.666Z,991.09
2019-01-18T00:06:35.654Z,991.03
2019-01-18T00:07:35.663Z,991.08
2019-01-18T00:08:35.655Z,991.07
2019-01-18T00:09:35.641Z,991.07
2019-01-18T00:10:35.607Z,991.08
2019-01-18T00:11:35.602Z,991.08
2019-01-18T00:12:35.585Z,991.14
2019-01-18T00:13:35.603Z,991.10
2019-01-18T00:14:35.564Z,991.14
2019-01-18T00:15:35.559Z,991.21
2019-01-18T00:16:35.542Z,991.13
2019-01-18T00:17:35.530Z,991.21
2019-01-18T00:18:35.549Z,991.23
2019-01-18T00:19:35.511Z,991.24
2019-01-18T00:20:35.532Z,991.23
2019-01-18T00:21:35.508Z,991.23
2019-01-18T00:22:35.480Z,991.22
2019-01-18T00:23:35.466Z,991.21
2019-01-18T00:24:35.492Z,991.23
2019-01-18T00:25:35.443Z,991.25
2019-01-18T00:26:35.466Z,991.32
2019-01-18T00:27:35.422Z,991.34
2019-01-18T00:28:35.430Z,991.36
2019-01-18T00:29:35.403Z,991.38
2019-01-18T00:30:35.413Z,991.37
2019-01-18T00:31:35.401Z,991.37
2019-01-18T00:32:35.376Z,991.40
2019-01-18T00:33:35.390Z,991.41
2019-01-18T00:34:35.346Z,991.42
2019-01-18T00:35:35.333Z,991.40
2019-01-18T00:36:35.329Z,991.42
2019-01-18T00:37:35.313Z,991.41
2019-01-18T00:38:35.326Z,991.48
2019-01-18T00:39:35.292Z,991.47
2019-01-18T00:40:35.300Z,991.51
2019-01-18T00:41:35.293Z,991.53
2019-01-18T00:42:35.257Z,991.49
2019-01-18T00:43:35.250Z,991.50
2019-01-18T00:44:35.247Z,991.48
2019-01-18T00:45:35.242Z,991.54
2019-01-18T00:46:35.213Z,991.56
2019-01-18T00:47:35.205Z,991.56
2019-01-18T00:48:35.218Z,991.61
2019-01-18T00:49:35.183Z,991.55
2019-01-18T00:50:35.207Z,991.60
2019-01-18T00:51:35.160Z,991.61
2019-01-18T00:52:35.149Z,991.59
2019-01-18T00:53:35.164Z,991.61
2019-01-18T00:54:35.127Z,991.61
2019-01-18T00:55:35.115Z,991.69
2019-01-18T00:56:35.126Z,991.66
2019-01-18T00:57:35.095Z,991.73
2019-01-18T00:58:35.083Z,991.74
2019-01-18T00:59:36.402Z,991.76
2019-01-18T01:00:35.062Z,991.78
2019-01-18T01:01:35.050Z,991.77
2019-01-18T01:02:35.069Z,991.73
2019-01-18T01:03:35.054Z,991.76
2019-01-18T01:04:35.018Z,991.76
2019-01-18T01:05:35.006Z,991.80
2019-01-18T01:06:34.995Z,991.81
2019-01-18T01:07:34.988Z,991.83
2019-01-18T01:08:35.010Z,991.83
2019-01-18T01:09:34.989Z,991.84
2019-01-18T01:10:34.962Z,991.82
2019-01-18T01:11:34.965Z,991.84
2019-01-18T01:12:34.931Z,991.84
2019-01-18T01:13:34.944Z,991.88
2019-01-18T01:14:34.912Z,991.90
2019-01-18T01:15:34.905Z,991.89
2019-01-18T01:16:34.888Z,991.96
2019-01-18T01:17:34.893Z,991.99
2019-01-18T01:18:34.866Z,992.00
2019-01-18T01:19:34.884Z,992.07
2019-01-18T01:20:34.842Z,992.05
2019-01-18T01:21:34.837Z,992.11
2019-01-18T01:22:34.827Z,992.11
2019-01-18T01:23:34.809Z,992.17
2019-01-18T01:24:34.831Z,992.18
2019-01-18T01:25:34.789Z,992.26
2019-01-18T01:26:34.808Z,992.24
2019-01-18T01:27:34.769Z,992.24
2019-01-18T01:28:34.760Z,992.27
2019-01-18T01:29:34.747Z,992.25
2019-01-18T01:30:34.735Z,992.36
2019-01-18T01:31:34.750Z,992.34
2019-01-18T01:32:34.746Z,992.35
2019-01-18T01:33:34.701Z,992.38
2019-01-18T01:34:34.720Z,992.43
2019-01-18T01:35:34.681Z,992.47
2019-01-18T01:36:34.670Z,992.42
2019-01-18T01:37:34.682Z,992.48
2019-01-18T01:38:34.647Z,992.47
2019-01-18T01:39:34.635Z,992.50
2019-01-18T01:40:34.662Z,992.53
2019-01-18T01:41:34.614Z,992.59
2019-01-18T01:42:34.602Z,992.55
2019-01-18T01:43:34.614Z,992.57
2019-01-18T01:44:34.581Z,992.61
2019-01-18T01:45:34.570Z,992.60
2019-01-18T01:46:34.563Z,992.61
2019-01-18T01:47:34.575Z,992.67
2019-01-18T01:48:34.542Z,992.63
2019-01-18T01:49:34.526Z,992.65
2019-01-18T01:50:34.517Z,992.72
2019-01-18T01:51:34.520Z,992.75
2019-01-18T01:52:34.555Z,992.71
2019-01-18T01:53:34.483Z,992.79
2019-01-18T01:54:34.471Z,992.83
2019-01-18T01:55:34.493Z,992.85
2019-01-18T01:56:34.476Z,992.88
2019-01-18T01:57:34.449Z,992.96
2019-01-18T01:58:34.458Z,993.04
2019-01-18T01:59:34.418Z,993.05
2019-01-18T02:00:34.434Z,993.13
2019-01-18T02:01:34.397Z,993.10
2019-01-18T02:02:34.385Z,993.08
2019-01-18T02:03:34.375Z,993.12
2019-01-18T02:04:34.390Z,993.14
2019-01-18T02:05:34.412Z,993.17
2019-01-18T02:06:34.340Z,993.21
2019-01-18T02:07:34.333Z,993.24
2019-01-18T02:08:34.321Z,993.22
2019-01-18T02:09:34.308Z,993.35
2019-01-18T02:10:34.342Z,993.31
2019-01-18T02:11:34.306Z,993.32
2019-01-18T02:12:34.275Z,993.29
2019-01-18T02:13:34.266Z,993.30
2019-01-18T02:14:34.255Z,993.33
2019-01-18T02:15:34.279Z,993.34
2019-01-18T02:16:34.232Z,993.35
2019-01-18T02:17:34.238Z,993.40
2019-01-18T02:18:34.210Z,993.42
2019-01-18T02:19:34.198Z,993.46
2019-01-18T02:20:34.215Z,993.51
2019-01-18T02:21:34.178Z,993.50
2019-01-18T02:22:34.197Z,993.52
2019-01-18T02:23:34.160Z,993.55
2019-01-18T02:24:34.143Z,993.51
2019-01-18T02:25:34.135Z,993.49
2019-01-18T02:26:34.144Z,993.57
2019-01-18T02:27:34.113Z,993.56
2019-01-18T02:28:34.102Z,993.66
2019-01-18T02:29:34.106Z,993.69
2019-01-18T02:30:34.079Z,993.71
2019-01-18T02:31:34.092Z,993.70
2019-01-18T02:32:34.066Z,993.79
2019-01-18T02:33:34.087Z,993.80
2019-01-18T02:34:34.033Z,993.80
2019-01-18T02:35:34.023Z,993.86
2019-01-18T02:36:34.011Z,993.88
2019-01-18T02:37:34.027Z,993.85
2019-01-18T02:38:34.023Z,993.92
2019-01-18T02:39:34.022Z,993.93
2019-01-18T02:40:33.970Z,993.98
2019-01-18T02:41:33.957Z,993.96
2019-01-18T02:42:33.967Z,993.97
2019-01-18T02:43:33.964Z,994.01
2019-01-18T02:44:33.953Z,994.07
2019-01-18T02:45:33.914Z,994.08
2019-01-18T02:46:33.903Z,994.08
2019-01-18T02:47:33.899Z,994.13
2019-01-18T02:48:33.900Z,994.13
2019-01-18T02:49:33.905Z,994.16
2019-01-18T02:50:33.862Z,994.26
2019-01-18T02:51:33.847Z,994.23
2019-01-18T02:52:33.834Z,994.29
2019-01-18T02:53:33.863Z,994.27
2019-01-18T02:54:33.814Z,994.28
2019-01-18T02:55:33.813Z,994.31
2019-01-18T02:56:33.798Z,994.33
2019-01-18T02:57:33.780Z,994.46
2019-01-18T02:58:33.817Z,994.42
2019-01-18T02:59:33.759Z,994.52
2019-01-18T03:00:33.755Z,994.49
2019-01-18T03:01:33.752Z,994.51
2019-01-18T03:02:33.730Z,994.52
2019-01-18T03:03:33.740Z,994.60
2019-01-18T03:04:33.704Z,994.57
2019-01-18T03:05:33.693Z,994.58
2019-01-18T03:06:33.683Z,994.58
2019-01-18T03:07:33.681Z,994.61
2019-01-18T03:08:33.684Z,994.61
2019-01-18T03:09:33.651Z,994.67
2019-01-18T03:10:33.662Z,994.64
2019-01-18T03:11:33.627Z,994.64
2019-01-18T03:12:33.617Z,994.71
2019-01-18T03:13:33.643Z,994.69
2019-01-18T03:14:33.602Z,994.76
2019-01-18T03:15:33.584Z,994.79
2019-01-18T03:16:33.577Z,994.78
2019-01-18T03:17:33.562Z,994.77
2019-01-18T03:18:33.577Z,994.82
2019-01-18T03:19:33.539Z,994.84
2019-01-18T03:20:33.537Z,994.88
2019-01-18T03:21:33.544Z,994.86
2019-01-18T03:22:33.506Z,994.89
2019-01-18T03:23:33.497Z,994.95
2019-01-18T03:24:33.519Z,994.92
2019-01-18T03:25:33.475Z,994.93
2019-01-18T03:26:33.470Z,994.98
2019-01-18T03:27:33.456Z,994.98
2019-01-18T03:28:33.444Z,995.03
2019-01-18T03:29:33.469Z,995.01
2019-01-18T03:30:33.424Z,995.07
2019-01-18T03:31:33.418Z,995.04
2019-01-18T03:32:33.478Z,995.04
2019-01-18T03:33:33.391Z,995.05
2019-01-18T03:34:33.405Z,995.06
2019-01-18T03:35:33.369Z,995.12
2019-01-18T03:36:33.355Z,995.11
2019-01-18T03:37:33.347Z,995.15
2019-01-18T03:38:33.362Z,995.22
2019-01-18T03:39:33.327Z,995.12
2019-01-18T03:40:33.312Z,995.23
2019-01-18T03:41:33.300Z,995.23
2019-01-18T03:42:33.290Z,995.25
2019-01-18T03:43:33.297Z,995.30
2019-01-18T03:44:33.298Z,995.28
2019-01-18T03:45:33.264Z,995.30
2019-01-18T03:46:33.251Z,995.35
2019-01-18T03:47:33.237Z,995.38
2019-01-18T03:48:33.233Z,995.40
2019-01-18T03:49:33.236Z,995.43
2019-01-18T03:50:33.202Z,995.44
2019-01-18T03:51:33.205Z,995.44
2019-01-18T03:52:33.205Z,995.43
2019-01-18T03:53:33.194Z,995.46
2019-01-18T03:54:33.184Z,995.56
2019-01-18T03:55:33.153Z,995.54
2019-01-18T03:56:33.138Z,995.56
2019-01-18T03:57:33.157Z,995.60
2019-01-18T03:58:33.119Z,995.65
2019-01-18T03:59:33.105Z,995.66
2019-01-18T04:00:33.124Z,995.66
2019-01-18T04:01:33.093Z,995.72
2019-01-18T04:02:33.072Z,995.74
2019-01-18T04:03:33.061Z,995.77
2019-01-18T04:04:33.067Z,995.74
2019-01-18T04:05:33.063Z,995.79
2019-01-18T04:06:33.050Z,995.82
2019-01-18T04:07:33.015Z,995.80
2019-01-18T04:08:33.004Z,995.85
2019-01-18T04:09:33.003Z,995.90
2019-01-18T04:10:33.022Z,995.94
2019-01-18T04:11:33.016Z,995.98
2019-01-18T04:12:32.969Z,996.00
2019-01-18T04:13:32.989Z,996.03
2019-01-18T04:14:32.946Z,996.03
2019-01-18T04:15:32.947Z,996.05
2019-01-18T04:16:32.917Z,996.08
2019-01-18T04:17:32.906Z,996.07
2019-01-18T04:18:32.922Z,996.08
2019-01-18T04:19:32.891Z,996.08
2019-01-18T04:20:32.874Z,996.09
2019-01-18T04:21:32.864Z,996.11
2019-01-18T04:22:32.880Z,996.14
2019-01-18T04:23:32.846Z,996.12
2019-01-18T04:24:32.840Z,996.10
2019-01-18T04:25:32.826Z,996.19
2019-01-18T04:26:32.810Z,996.19
2019-01-18T04:27:32.823Z,996.17
2019-01-18T04:28:32.820Z,996.20
2019-01-18T04:29:32.776Z,996.19
2019-01-18T04:30:33.534Z,996.22
2019-01-18T04:31:32.757Z,996.21
2019-01-18T04:32:32.742Z,996.16
2019-01-18T04:33:32.757Z,996.20
2019-01-18T04:34:32.741Z,996.19
2019-01-18T04:35:32.733Z,996.25
2019-01-18T04:36:32.699Z,996.24
2019-01-18T04:37:32.709Z,996.22
2019-01-18T04:38:32.679Z,996.31
2019-01-18T04:39:32.689Z,996.33
2019-01-18T04:40:32.656Z,996.27
2019-01-18T04:41:32.645Z,996.35
2019-01-18T04:42:32.632Z,996.36
2019-01-18T04:43:32.641Z,996.31
2019-01-18T04:44:32.635Z,996.40
2019-01-18T04:45:32.605Z,996.35
2019-01-18T04:46:32.593Z,996.38
2019-01-18T04:47:32.580Z,996.40
2019-01-18T04:48:32.572Z,996.43
2019-01-18T04:49:32.594Z,996.40
2019-01-18T04:50:32.576Z,996.44
2019-01-18T04:51:32.548Z,996.43
2019-01-18T04:52:32.524Z,996.42
2019-01-18T04:53:32.514Z,996.42
2019-01-18T04:54:32.505Z,996.40
2019-01-18T04:55:32.499Z,996.44
2019-01-18T04:56:32.515Z,996.41
2019-01-18T04:57:32.470Z,996.49
2019-01-18T04:58:32.459Z,996.47
2019-01-18T04:59:32.449Z,996.46
2019-01-18T05:00:32.468Z,996.48
2019-01-18T05:01:32.427Z,996.51
2019-01-18T05:02:32.422Z,996.56
2019-01-18T05:03:32.403Z,996.50
2019-01-18T05:04:32.391Z,996.51
2019-01-18T05:05:32.397Z,996.52
2019-01-18T05:06:32.399Z,996.53
2019-01-18T05:07:32.385Z,996.57
2019-01-18T05:08:32.373Z,996.58
2019-01-18T05:09:32.370Z,996.61
2019-01-18T05:10:32.326Z,996.63
2019-01-18T05:11:32.315Z,996.65
2019-01-18T05:12:32.304Z,996.69
2019-01-18T05:13:32.293Z,996.70
2019-01-18T05:14:32.307Z,996.68
2019-01-18T05:15:32.286Z,996.72
2019-01-18T05:16:32.285Z,996.75
2019-01-18T05:17:32.253Z,996.69
2019-01-18T05:18:32.241Z,996.74
2019-01-18T05:19:32.261Z,996.76
2019-01-18T05:20:32.244Z,996.79
2019-01-18T05:21:32.212Z,996.76
2019-01-18T05:22:32.210Z,996.82
2019-01-18T05:23:32.192Z,996.80
2019-01-18T05:24:32.173Z,996.84
2019-01-18T05:25:32.188Z,996.87
2019-01-18T05:26:32.154Z,996.90
2019-01-18T05:27:32.153Z,996.93
2019-01-18T05:28:32.166Z,996.94
2019-01-18T05:29:32.123Z,996.92
2019-01-18T05:30:32.125Z,997.01
2019-01-18T05:31:32.096Z,997.01
2019-01-18T05:32:32.087Z,997.01
2019-01-18T05:33:32.078Z,997.02
2019-01-18T05:34:32.093Z,996.99
2019-01-18T05:35:32.056Z,997.03
2019-01-18T05:36:32.045Z,997.08
2019-01-18T05:37:32.035Z,997.06
2019-01-18T05:38:32.050Z,997.14
2019-01-18T05:39:32.011Z,997.10
2019-01-18T05:40:32.008Z,997.18
2019-01-18T05:41:31.987Z,997.18
2019-01-18T05:42:31.976Z,997.20
2019-01-18T05:43:31.988Z,997.18
2019-01-18T05:44:32.029Z,997.25
2019-01-18T05:45:31.998Z,997.27
2019-01-18T05:46:31.937Z,997.26
2019-01-18T05:47:31.936Z,997.33
2019-01-18T05:48:31.912Z,997.33
2019-01-18T05:49:31.903Z,997.36
2019-01-18T05:50:31.916Z,997.40
2019-01-18T05:51:31.883Z,997.39
2019-01-18T05:52:32.589Z,997.43
2019-01-18T05:53:31.858Z,997.46
2019-01-18T05:54:31.855Z,997.45
2019-01-18T05:55:31.858Z,997.46
2019-01-18T05:56:31.829Z,997.45
2019-01-18T05:57:31.813Z,997.45
2019-01-18T05:58:31.808Z,997.44
2019-01-18T05:59:31.791Z,997.46
2019-01-18T06:00:31.814Z,997.50
2019-01-18T06:01:31.794Z,997.49
2019-01-18T06:02:31.765Z,997.51
2019-01-18T06:03:31.747Z,997.55
2019-01-18T06:04:31.741Z,997.57
2019-01-18T06:05:31.726Z,997.60
2019-01-18T06:06:31.747Z,997.62
2019-01-18T06:07:31.709Z,997.66
2019-01-18T06:08:31.720Z,997.66
2019-01-18T06:09:31.685Z,997.70
2019-01-18T06:10:31.672Z,997.75
2019-01-18T06:11:31.674Z,997.74
2019-01-18T06:12:31.682Z,997.79
2019-01-18T06:13:31.654Z,997.76
2019-01-18T06:14:31.628Z,997.84
2019-01-18T06:15:31.619Z,997.84
2019-01-18T06:16:31.608Z,997.84
2019-01-18T06:17:31.613Z,997.79
2019-01-18T06:18:31.608Z,997.87
2019-01-18T06:19:31.598Z,997.87
2019-01-18T06:20:31.563Z,997.93
2019-01-18T06:21:31.553Z,997.87
2019-01-18T06:22:31.566Z,997.91
2019-01-18T06:23:31.532Z,997.93
2019-01-18T06:24:31.521Z,997.95
2019-01-18T06:25:31.522Z,997.98
2019-01-18T06:26:31.501Z,997.95
2019-01-18T06:27:31.520Z,997.96
2019-01-18T06:28:31.479Z,997.97
2019-01-18T06:29:31.465Z,997.96
2019-01-18T06:30:31.478Z,997.99
2019-01-18T06:31:31.452Z,998.02
2019-01-18T06:32:31.434Z,998.00
2019-01-18T06:33:31.425Z,998.03
2019-01-18T06:34:31.435Z,998.07
2019-01-18T06:35:31.402Z,998.06
2019-01-18T06:36:31.405Z,998.09
2019-01-18T06:37:31.401Z,998.10
2019-01-18T06:38:31.374Z,998.15
2019-01-18T06:39:31.358Z,998.18
2019-01-18T06:40:31.372Z,998.18
2019-01-18T06:41:31.336Z,998.25
2019-01-18T06:42:31.326Z,998.21
2019-01-18T06:43:31.314Z,998.25
2019-01-18T06:44:31.317Z,998.30
2019-01-18T06:45:31.315Z,998.29
2019-01-18T06:46:31.283Z,998.30
2019-01-18T06:47:31.271Z,998.32
2019-01-18T06:48:31.262Z,998.33
2019-01-18T06:49:31.252Z,998.32
2019-01-18T06:50:31.274Z,998.40
2019-01-18T06:51:31.401Z,998.39
2019-01-18T06:52:31.303Z,998.39
2019-01-18T06:53:31.208Z,998.43
2019-01-18T06:54:31.262Z,998.44
2019-01-18T06:55:31.223Z,998.40
2019-01-18T06:56:32.519Z,998.44
2019-01-18T06:57:31.177Z,998.44
2019-01-18T06:58:31.153Z,998.47
2019-01-18T06:59:31.169Z,998.45
2019-01-18T07:00:31.132Z,998.47
2019-01-18T07:01:31.120Z,998.47
2019-01-18T07:02:31.110Z,998.49
2019-01-18T07:03:31.106Z,998.53
2019-01-18T07:04:31.112Z,998.52
2019-01-18T07:05:31.082Z,998.54
2019-01-18T07:06:31.066Z,998.54
2019-01-18T07:07:31.084Z,998.60
2019-01-18T07:08:31.045Z,998.62
2019-01-18T07:09:31.047Z,998.63
2019-01-18T07:10:31.055Z,998.63
2019-01-18T07:11:31.019Z,998.65
2019-01-18T07:12:31.006Z,998.65
2019-01-18T07:13:30.992Z,998.68
2019-01-18T07:14:30.981Z,998.65
2019-01-18T07:15:31.016Z,998.67
2019-01-18T07:16:30.960Z,998.67
2019-01-18T07:17:30.949Z,998.70
2019-01-18T07:18:30.938Z,998.75
2019-01-18T07:19:30.928Z,998.77
2019-01-18T07:20:30.941Z,998.78
2019-01-18T07:21:30.912Z,998.85
2019-01-18T07:22:30.904Z,998.84
2019-01-18T07:23:30.907Z,998.86
2019-01-18T07:24:30.875Z,998.87
2019-01-18T07:25:30.874Z,998.88
2019-01-18T07:26:30.853Z,998.88
2019-01-18T07:27:30.840Z,998.89
2019-01-18T07:28:30.872Z,998.94
2019-01-18T07:29:30.819Z,998.90
2019-01-18T07:30:30.814Z,998.94
2019-01-18T07:31:30.810Z,998.95
2019-01-18T07:32:30.793Z,998.97
2019-01-18T07:33:30.778Z,998.99
2019-01-18T07:34:30.805Z,999.09
2019-01-18T07:35:30.772Z,999.10
2019-01-18T07:36:30.748Z,999.07
2019-01-18T07:37:30.735Z,999.13
2019-01-18T07:38:30.750Z,999.13
2019-01-18T07:39:30.711Z,999.15
2019-01-18T07:40:30.732Z,999.17
2019-01-18T07:41:30.696Z,999.21
2019-01-18T07:42:30.686Z,999.20
2019-01-18T07:43:30.695Z,999.19
2019-01-18T07:44:30.658Z,999.20
2019-01-18T07:45:30.648Z,999.18
2019-01-18T07:46:30.651Z,999.20
2019-01-18T07:47:30.627Z,999.19
2019-01-18T07:48:30.647Z,999.20
2019-01-18T07:49:30.605Z,999.22
2019-01-18T07:50:30.597Z,999.20
2019-01-18T07:51:30.582Z,999.25
2019-01-18T07:52:30.575Z,999.27
2019-01-18T07:53:30.600Z,999.23
2019-01-18T07:54:30.551Z,999.25
2019-01-18T07:55:30.542Z,999.27
2019-01-18T07:56:30.551Z,999.25
2019-01-18T07:57:30.522Z,999.29
2019-01-18T07:58:30.528Z,999.29
2019-01-18T07:59:30.529Z,999.30
2019-01-18T08:00:30.489Z,999.32
2019-01-18T08:01:30.476Z,999.34
2019-01-18T08:02:30.481Z,999.41
2019-01-18T08:03:30.478Z,999.40
2019-01-18T08:04:30.443Z,999.40
2019-01-18T08:05:30.433Z,999.42
2019-01-18T08:06:30.435Z,999.45
2019-01-18T08:07:30.410Z,999.50
2019-01-18T08:08:30.423Z,999.49
2019-01-18T08:09:30.391Z,999.50
2019-01-18T08:10:30.380Z,999.51
2019-01-18T08:11:30.392Z,999.54
2019-01-18T08:12:30.397Z,999.55
2019-01-18T08:13:30.370Z,999.55
2019-01-18T08:14:30.339Z,999.57
2019-01-18T08:15:30.323Z,999.57
2019-01-18T08:16:30.313Z,999.59
2019-01-18T08:17:30.327Z,999.63
2019-01-18T08:18:30.305Z,999.60
2019-01-18T08:19:30.314Z,999.63
2019-01-18T08:20:30.270Z,999.68
2019-01-18T08:21:30.282Z,999.68
2019-01-18T08:22:30.256Z,999.73
2019-01-18T08:23:30.241Z,999.71
2019-01-18T08:24:30.245Z,999.69
2019-01-18T08:25:30.218Z,999.77
2019-01-18T08:26:30.236Z,999.76
2019-01-18T08:27:30.195Z,999.78
2019-01-18T08:28:30.194Z,999.81
2019-01-18T08:29:30.173Z,999.81
2019-01-18T08:30:30.202Z,999.86
2019-01-18T08:31:30.178Z,999.84
2019-01-18T08:32:30.143Z,999.82
2019-01-18T08:33:30.128Z,999.78
2019-01-18T08:34:30.134Z,999.84
2019-01-18T08:35:30.109Z,999.85
2019-01-18T08:36:30.162Z,999.88
2019-01-18T08:37:30.087Z,999.89
2019-01-18T08:38:30.075Z,999.84
2019-01-18T08:39:30.067Z,999.92
2019-01-18T08:40:30.055Z,999.91
2019-01-18T08:41:30.066Z,999.94
2019-01-18T08:42:30.058Z,999.97
2019-01-18T08:43:30.046Z,999.93
2019-01-18T08:44:30.010Z,999.97
2019-01-18T08:45:30.001Z,999.96
2019-01-18T08:46:29.993Z,1000.00
2019-01-18T08:47:29.978Z,999.96
2019-01-18T08:48:30.016Z,999.97
2019-01-18T08:49:29.976Z,999.96
2019-01-18T08:50:29.945Z,1000.01
2019-01-18T08:51:29.933Z,999.97
2019-01-18T08:52:29.946Z,1000.05
2019-01-18T08:53:29.949Z,1000.04
2019-01-18T08:54:29.926Z,1000.05
2019-01-18T08:55:29.922Z,1000.04
2019-01-18T08:56:29.884Z,1000.15
2019-01-18T08:57:29.869Z,1000.15
2019-01-18T08:58:29.885Z,1000.15
2019-01-18T08:59:29.874Z,1000.17
2019-01-18T09:00:29.840Z,1000.19
2019-01-18T09:01:35.758Z,1000.22
2019-01-18T09:02:30.815Z,1000.23
2019-01-18T09:03:29.833Z,1000.27
2019-01-18T09:04:29.801Z,1000.27
2019-01-18T09:05:29.786Z,1000.26
2019-01-18T09:06:29.782Z,1000.28
2019-01-18T09:07:29.761Z,1000.28
2019-01-18T09:08:29.770Z,1000.34
2019-01-18T09:09:29.762Z,1000.34
2019-01-18T09:10:29.735Z,1000.34
2019-01-18T09:11:29.718Z,1000.33
2019-01-18T09:12:29.711Z,1000.37
2019-01-18T09:13:29.696Z,1000.41
2019-01-18T09:14:29.710Z,1000.41
2019-01-18T09:15:29.674Z,1000.48
2019-01-18T09:16:29.669Z,1000.48
2019-01-18T09:17:29.652Z,1000.45
2019-01-18T09:18:29.644Z,1000.52
2019-01-18T09:19:29.680Z,1000.50
2019-01-18T09:20:29.635Z,1000.57
2019-01-18T09:21:29.631Z,1000.60
2019-01-18T09:22:29.595Z,1000.56
2019-01-18T09:23:29.593Z,1000.61
2019-01-18T09:24:29.604Z,1000.62
2019-01-18T09:25:29.567Z,1000.63
2019-01-18T09:26:29.553Z,1000.66
2019-01-18T09:27:29.542Z,1000.66
2019-01-18T09:28:29.537Z,1000.65
2019-01-18T09:29:29.544Z,1000.67
2019-01-18T09:30:29.509Z,1000.67
2019-01-18T09:31:29.502Z,1000.70
2019-01-18T09:32:29.488Z,1000.73
2019-01-18T09:33:29.499Z,1000.75
2019-01-18T09:34:29.478Z,1000.77
2019-01-18T09:35:29.480Z,1000.75
2019-01-18T09:36:29.447Z,1000.78
2019-01-18T09:37:29.442Z,1000.83
2019-01-18T09:38:29.422Z,1000.88
2019-01-18T09:39:29.415Z,1000.85
2019-01-18T09:40:29.423Z,1000.91
2019-01-18T09:41:29.417Z,1000.90
2019-01-18T09:42:29.377Z,1000.85
2019-01-18T09:43:29.373Z,1000.90
2019-01-18T09:44:29.358Z,1000.90
2019-01-18T09:45:29.350Z,1000.87
2019-01-18T09:46:29.357Z,1000.84
2019-01-18T09:47:29.324Z,1000.85
2019-01-18T09:48:29.312Z,1000.87
2019-01-18T09:49:29.332Z,1000.81
2019-01-18T09:50:29.289Z,1000.86
2019-01-18T09:51:29.282Z,1000.83
2019-01-18T09:52:29.268Z,1000.88
2019-01-18T09:53:29.288Z,1000.86
2019-01-18T09:54:29.245Z,1000.87
2019-01-18T09:55:29.239Z,1000.86
2019-01-18T09:56:29.243Z,1000.86
2019-01-18T09:57:29.216Z,1000.90
2019-01-18T09:58:29.270Z,1000.90
2019-01-18T09:59:29.235Z,1000.91
2019-01-18T10:00:29.180Z,1000.92
2019-01-18T10:01:29.176Z,1000.92
2019-01-18T10:02:29.158Z,1000.93
2019-01-18T10:03:29.151Z,1000.97
2019-01-18T10:04:29.160Z,1000.93
2019-01-18T10:05:29.126Z,1000.95
2019-01-18T10:06:29.115Z,1000.95
2019-01-18T10:07:29.108Z,1000.94
2019-01-18T10:08:29.098Z,1000.97
2019-01-18T10:09:29.239Z,1000.93
2019-01-18T10:10:29.072Z,1000.94
2019-01-18T10:11:29.061Z,1000.93
2019-01-18T10:12:29.050Z,1000.95
2019-01-18T10:13:29.045Z,1000.96
2019-01-18T10:14:29.056Z,1000.96
2019-01-18T10:15:29.018Z,1000.99
2019-01-18T10:16:29.006Z,1000.98
2019-01-18T10:17:28.997Z,1000.98
2019-01-18T10:18:29.007Z,1001.00
2019-01-18T10:19:29.000Z,1001.03
2019-01-18T10:20:28.972Z,1001.05
2019-01-18T10:21:28.950Z,1000.97
2019-01-18T10:22:28.970Z,1000.98
2019-01-18T10:23:28.946Z,1000.97
2019-01-18T10:24:28.918Z,1001.01
2019-01-18T10:25:28.918Z,1001.02
2019-01-18T10:26:28.897Z,1001.04
2019-01-18T10:27:28.886Z,1001.01
2019-01-18T10:28:28.907Z,1001.02
2019-01-18T10:29:28.863Z,1001.06
2019-01-18T10:30:28.875Z,1000.99
2019-01-18T10:31:28.852Z,1000.98
2019-01-18T10:32:28.832Z,1001.03
2019-01-18T10:33:28.821Z,1001.04
2019-01-18T10:34:28.825Z,1001.04
2019-01-18T10:35:28.799Z,1001.05
2019-01-18T10:36:28.787Z,1000.96
2019-01-18T10:37:28.783Z,1001.00
2019-01-18T10:38:28.767Z,1000.98
2019-01-18T10:39:28.780Z,1000.96
2019-01-18T10:40:28.760Z,1001.00
2019-01-18T10:41:28.731Z,1000.95
2019-01-18T10:42:28.841Z,1000.92
2019-01-18T10:43:28.720Z,1000.94
2019-01-18T10:44:28.708Z,1000.90
2019-01-18T10:45:28.687Z,1000.92
2019-01-18T10:46:28.681Z,1000.94
2019-01-18T10:47:28.665Z,1000.98
2019-01-18T10:48:28.680Z,1001.00
2019-01-18T10:49:28.658Z,1000.98
2019-01-18T10:50:28.633Z,1000.98
2019-01-18T10:51:28.638Z,1000.96
2019-01-18T10:52:28.611Z,1000.94
2019-01-18T10:53:28.598Z,1000.95
2019-01-18T10:54:28.642Z,1000.95
2019-01-18T10:55:28.582Z,1000.91
2019-01-18T10:56:28.566Z,1000.93
2019-01-18T10:57:28.554Z,1000.92
2019-01-18T10:58:28.543Z,1000.95
2019-01-18T10:59:28.550Z,1000.95
2019-01-18T11:00:28.543Z,1000.93
2019-01-18T11:01:28.517Z,1000.92
2019-01-18T11:02:28.500Z,1000.93
2019-01-18T11:03:28.489Z,1000.93
2019-01-18T11:04:28.477Z,1000.94
2019-01-18T11:05:28.484Z,1000.93
2019-01-18T11:06:28.477Z,1000.95
2019-01-18T11:07:28.452Z,1000.90
2019-01-18T11:08:28.433Z,1000.96
2019-01-18T11:09:28.422Z,1000.95
2019-01-18T11:10:28.412Z,1000.91
2019-01-18T11:11:28.424Z,1000.88
2019-01-18T11:12:28.718Z,1000.90
2019-01-18T11:13:28.385Z,1000.88
2019-01-18T11:14:28.367Z,1000.90
2019-01-18T11:15:28.358Z,1000.87
2019-01-18T11:16:28.369Z,1000.95
2019-01-18T11:17:28.333Z,1000.94
2019-01-18T11:18:28.349Z,1000.89
2019-01-18T11:19:28.339Z,1000.90
2019-01-18T11:20:28.326Z,1000.84
2019-01-18T11:21:28.290Z,1000.88
2019-01-18T11:22:28.285Z,1000.84
2019-01-18T11:23:28.299Z,1000.85
2019-01-18T11:24:28.257Z,1000.83
2019-01-18T11:25:31.848Z,1000.86
2019-01-18T11:26:28.257Z,1000.81
2019-01-18T11:27:28.229Z,1000.86
2019-01-18T11:28:28.233Z,1000.86
2019-01-18T11:29:28.200Z,1000.84
2019-01-18T11:30:28.193Z,1000.79
2019-01-18T11:31:28.198Z,1000.84
2019-01-18T11:32:28.195Z,1000.84
2019-01-18T11:33:28.173Z,1000.82
2019-01-18T11:34:28.145Z,1000.80
2019-01-18T11:35:28.133Z,1000.75
2019-01-18T11:36:28.123Z,1000.75
2019-01-18T11:37:28.155Z,1000.71
2019-01-18T11:38:28.119Z,1000.71
2019-01-18T11:39:28.118Z,1000.70
2019-01-18T11:40:28.079Z,1000.73
2019-01-18T11:41:28.068Z,1000.68
2019-01-18T11:42:28.057Z,1000.68
2019-01-18T11:43:28.082Z,1000.68
2019-01-18T11:44:28.053Z,1000.64
2019-01-18T11:45:28.023Z,1000.68
2019-01-18T11:46:28.013Z,1000.72
2019-01-18T11:47:28.432Z,1000.71
2019-01-18T11:48:27.992Z,1000.71
2019-01-18T11:49:27.990Z,1000.72
2019-01-18T11:50:27.969Z,1000.69
2019-01-18T11:51:27.960Z,1000.68
2019-01-18T11:52:27.979Z,1000.69
2019-01-18T11:53:27.935Z,1000.72
2019-01-18T11:54:27.944Z,1000.66
2019-01-18T11:55:27.922Z,1000.66
2019-01-18T11:56:27.924Z,1000.68
2019-01-18T11:57:27.891Z,1000.69
2019-01-18T11:58:27.905Z,1000.64
2019-01-18T11:59:27.869Z,1000.69
2019-01-18T12:00:27.859Z,1000.68
2019-01-18T12:01:27.864Z,1000.67
2019-01-18T12:02:27.838Z,1000.68
2019-01-18T12:03:27.851Z,1000.68
2019-01-18T12:04:27.814Z,1000.67
2019-01-18T12:05:27.802Z,1000.70
2019-01-18T12:06:27.796Z,1000.68
2019-01-18T12:07:27.797Z,1000.65
2019-01-18T12:08:27.796Z,1000.69
2019-01-18T12:09:27.758Z,1000.66
2019-01-18T12:10:27.750Z,1000.68
2019-01-18T12:11:27.736Z,1000.66
2019-01-18T12:12:28.268Z,1000.72
2019-01-18T12:13:27.751Z,1000.74
2019-01-18T12:14:27.743Z,1000.70
2019-01-18T12:15:27.693Z,1000.70
2019-01-18T12:16:27.681Z,1000.72
2019-01-18T12:17:27.700Z,1000.68
2019-01-18T12:18:27.661Z,1000.66
2019-01-18T12:19:27.671Z,1000.69
2019-01-18T12:20:27.638Z,1000.72
2019-01-18T12:21:27.626Z,1000.67